Terminal Aerodrome Forecast
Issued by NWS

Home | Current Version | Previous Version | Text Only | Print | Product List | Glossary On
Versions: 1 2 3 4 5 6 7 8 9 10 11 12 13 14 15 16 17 18
000
FTUS43 KILX 210300 AAA
TAFBMI
TAF AMD
KBMI 210333Z 2104/2124 01008KT P6SM BKN060
     FM210800 VRB06KT P6SM SCT060
     FM211300 02010KT P6SM SCT040=

USA.gov is the U.S. government's official web portal to all federal, state and local government web resources and services.